Pleasanton, California
Current Conditions -  °F | °C
As of 1:53 PM on Tuesday 21 Oct 2014 (Local Time) from KLVK Reporting Station
Clear Clear  
Wind Chill: 68°   Ceiling: Unl
Heat Index: 68°   Visibility: 10mi
Dew Point: 43°   Wind: 3mph
Humidity: 40%   Direction: 180°S
Pressure: 30.03"   Gusts: NA
Location:  37.66°N, 121.87°W
Report Text: KLVK 212053Z 18003KT 10SM CLR 20/06 A3003 RMK AO2 SLP167 T02000061 58021
Loading
Personal Weather Stations






























Interactive Weather Map
Tropical Storm Tracking
New forecast layout! Learn more

10-Day Weather Forecast

Advertisements
Track Severe Weather on mobile